• Join FlightAware (Why Join?)
  • Login
  • US Flag 
02:35PM EST


 

Airport Tracker/Info


-or-


 

Live Flight TrackerFlight Track Log ✈ N517CP ✈ 02-Oct-2013 ✈ KSGR - KEDC

Flight Track Log - Related Links

Times and Time Zones

All times are in EDT time to prevent confusion due to time zone crossing. See the N517CP flight status page for this flight to view local times or setup timezone preferences in your user account.

Time Position Orientation Groundspeed Altitude Reporting Facility
EDT Latitude Longitude Course Direction KTS MPH feet Rate Location/Type
02:24PM 29.5847 -95.6556 181° South 110 127 1,600  Level Houston Center
02:25PM 29.5689 -95.6531 172° South 113 130 2,000 600 Climbing Houston Center
02:25PM 29.5467 -95.6528 179° South 139 160 2,200 960 Climbing Houston Center
02:26PM 29.5414 -95.6750 255° West 144 166 3,000 1,140 Climbing Houston Center
02:26PM 29.5478 -95.6886 298° West 137 158 3,400 840 Climbing Houston Center
02:27PM 29.5581 -95.7136 295° West 136 157 3,900 480 Climbing Houston Center
02:27PM 29.5642 -95.7300 293° West 142 163 3,900  Level Houston Center
02:28PM 29.5719 -95.7603 286° West 150 173 3,900 60 Level Houston Center
02:28PM 29.5772 -95.7836 285° West 171 197 4,000  Climbing Houston Center
02:29PM 29.5839 -95.8122 285° West 164 189 3,900 -120 Descending Houston Center
02:29PM 29.5903 -95.8375 286° West 170 196 3,900 60 Level Houston Center
02:30PM 29.5961 -95.8650 284° West 169 194 4,000  Climbing Houston Center
02:30PM 29.6011 -95.8892 283° West 170 196 3,900 -120 Descending Houston Center
02:31PM 29.6086 -95.9175 287° West 171 197 3,900  Level Houston Center
02:31PM 29.6144 -95.9428 285° West 173 199 3,900 660 Level Houston Center
02:32PM 29.6267 -95.9669 300° West 169 194 4,600 1,080 Climbing Houston Center
02:32PM 29.6369 -95.9858 302° West 135 155 5,000 960 Climbing Houston Center
02:33PM 29.6506 -96.0108 302° West 143 165 5,600 720 Climbing Houston Center
02:33PM 29.6572 -96.0244 299° West 137 158 5,800 240 Climbing Houston Center
02:34PM 29.6683 -96.0489 298° West 138 159 5,900 60 Climbing Houston Center
02:34PM 29.6778 -96.0678 300° West 164 189 5,900 60 Level Houston Center
02:35PM 29.6919 -96.0964 300° West 164 189 6,000  Climbing Houston Center
02:35PM 29.7028 -96.1153 303° West 177 204 5,900 180 Descending Houston Center
02:36PM 29.7161 -96.1444 298° West 174 200 6,200 660 Climbing Houston Center
02:36PM 29.7236 -96.1636 294° West 156 180 6,600 720 Climbing Houston Center
02:37PM 29.7406 -96.1953 302° West 154 177 7,000 480 Climbing Houston Center
02:37PM 29.7439 -96.2022 299° West 152 175 7,100 540 Climbing Houston Center
02:38PM 29.7614 -96.2378 300° West 153 176 7,600 540 Climbing Houston Center
02:38PM 29.7642 -96.2456 292° West 153 176 7,700 240 Climbing Houston Center
02:39PM 29.7847 -96.2889 299° West 159 183 7,900 60 Climbing Houston Center
02:40PM 29.8075 -96.3369 299° West 179 206 7,900  Level Houston Center
02:41PM 29.8325 -96.3847 301° West 177 204 7,900  Level Houston Center
02:41PM 29.8294 -96.3786 120° Southeast 174 200 7,900  Level Houston Center
02:42PM 29.8533 -96.4278 299° West 175 201 7,900  Level Houston Center
02:42PM 29.8606 -96.4417 301° West 177 204 7,900  Level Houston Center
02:43PM 29.8814 -96.4872 298° West 176 203 7,900  Level Houston Center
02:43PM 29.8833 -96.4897 312° West 175 201 7,900  Level Houston Center
02:44PM 29.9061 -96.5358 300° West 176 203 7,900  Level Houston Center
02:44PM 29.9061 -96.5378 270° West 176 203 7,900 60 Level Houston Center
02:45PM 29.9292 -96.5858 299° West 177 204 8,000 60 Climbing Houston Center
02:46PM 29.9314 -96.5906 299° West 178 205 8,000 -120 Level Houston Center
02:47PM 29.9539 -96.6356 300° West 179 206 7,900 -60 Descending Houston Center
02:48PM 29.9781 -96.6850 299° West 178 205 7,900  Level Houston Center
02:49PM 30.0022 -96.7350 299° West 179 206 7,900  Level Houston Center
02:50PM 30.0306 -96.7953 299° West 179 206 7,900  Level Houston Center
02:51PM 30.0550 -96.8444 300° West 178 205 7,900  Level Houston Center
02:52PM 30.0781 -96.8950 298° West 178 205 7,900  Level Houston Center
02:53PM 30.1019 -96.9444 299° West 178 205 7,900 -180 Level Houston Center
02:54PM 30.1278 -96.9956 300° West 180 207 7,600 -480 Descending Houston Center
02:55PM 30.1581 -97.0606 298° West 192 221 6,900 -600 Descending Houston Center
02:56PM 30.1844 -97.1156 299° West 194 223 6,400 -540 Descending Houston Center
02:57PM 30.2103 -97.1697 299° West 191 220 5,800 -600 Descending Houston Center
02:58PM 30.2364 -97.2250 299° West 192 221 5,200 -540 Descending Houston Center
02:59PM 30.2608 -97.2775 298° West 187 215 4,700 -540 Descending Houston Center
03:00PM 30.2844 -97.3275 299° West 179 206 4,100 -600 Descending Houston Center
03:01PM 30.3094 -97.3800 299° West 181 208 3,500 -660 Descending Houston Center
03:02PM 30.3353 -97.4308 300° West 183 211 2,800 -480 Descending Houston Center
03:03PM 30.3619 -97.4842 300° West 178 205 2,600 -240 Descending Houston Center